createdAt,value
2022-08-28T00:00:40.438Z,19.10
2022-08-28T00:05:41.195Z,19.06
2022-08-28T00:10:41.857Z,18.98
2022-08-28T00:15:42.605Z,18.98
2022-08-28T00:20:43.295Z,19.00
2022-08-28T00:25:44.541Z,19.04
2022-08-28T00:30:44.886Z,19.00
2022-08-28T00:35:45.583Z,18.98
2022-08-28T00:40:46.295Z,18.94
2022-08-28T00:45:46.976Z,18.88
2022-08-28T00:50:47.681Z,18.84
2022-08-28T00:55:48.378Z,18.81
2022-08-28T01:00:49.085Z,18.75
2022-08-28T01:05:49.851Z,18.87
2022-08-28T01:10:50.549Z,18.87
2022-08-28T01:15:51.513Z,18.87
2022-08-28T01:20:51.926Z,18.85
2022-08-28T01:25:52.644Z,18.87
2022-08-28T01:30:53.563Z,18.94
2022-08-28T01:35:54.324Z,18.91
2022-08-28T01:40:55.101Z,18.94
2022-08-28T01:45:55.866Z,19.16
2022-08-28T01:50:56.747Z,19.06
2022-08-28T01:55:57.467Z,18.90
2022-08-28T02:00:58.172Z,18.81
2022-08-28T02:05:58.869Z,18.78
2022-08-28T02:10:59.633Z,18.70
2022-08-28T02:16:00.465Z,18.67
2022-08-28T02:21:01.483Z,18.67
2022-08-28T02:26:01.725Z,18.72
2022-08-28T02:31:02.658Z,18.63
2022-08-28T02:36:03.336Z,18.66
2022-08-28T02:41:04.342Z,18.69
2022-08-28T02:46:04.780Z,18.73
2022-08-28T02:51:05.613Z,18.62
2022-08-28T02:56:06.258Z,18.57
2022-08-28T03:01:07.132Z,18.55
2022-08-28T03:06:07.971Z,18.57
2022-08-28T03:11:08.809Z,18.58
2022-08-28T03:16:09.636Z,18.58
2022-08-28T03:21:10.478Z,18.51
2022-08-28T03:26:11.286Z,18.50
2022-08-28T03:31:12.021Z,18.33
2022-08-28T03:36:12.768Z,18.25
2022-08-28T03:41:13.544Z,18.25
2022-08-28T03:46:21.260Z,18.26
2022-08-28T03:51:14.882Z,18.25
2022-08-28T03:56:15.450Z,18.20
2022-08-28T04:01:16.124Z,18.18
2022-08-28T04:06:16.774Z,18.17
2022-08-28T04:11:17.416Z,18.12
2022-08-28T04:16:18.120Z,18.08
2022-08-28T04:21:18.773Z,18.11
2022-08-28T04:26:19.432Z,18.14
2022-08-28T04:31:32.208Z,18.03
2022-08-28T04:36:21.614Z,17.97
2022-08-28T04:41:21.311Z,17.95
2022-08-28T04:46:22.039Z,17.89
2022-08-28T04:51:22.709Z,17.99
2022-08-28T04:56:23.353Z,17.93
2022-08-28T05:01:24.093Z,17.97
2022-08-28T05:06:24.779Z,18.07
2022-08-28T05:11:34.297Z,18.07
2022-08-28T05:16:27.081Z,18.00
2022-08-28T05:21:26.827Z,17.97
2022-08-28T05:26:29.637Z,17.84
2022-08-28T05:31:28.237Z,17.82
2022-08-28T05:36:32.334Z,17.84
2022-08-28T05:41:29.645Z,17.87
2022-08-28T05:46:30.275Z,17.82
2022-08-28T05:51:30.922Z,17.71
2022-08-28T05:56:31.622Z,17.71
2022-08-28T06:01:32.322Z,17.75
2022-08-28T06:06:32.994Z,17.74
2022-08-28T06:11:33.700Z,17.74
2022-08-28T06:16:34.579Z,17.72
2022-08-28T06:21:35.757Z,17.72
2022-08-28T06:26:35.966Z,17.55
2022-08-28T06:31:36.699Z,17.44
2022-08-28T06:36:37.474Z,17.63
2022-08-28T06:41:38.330Z,17.78
2022-08-28T06:46:39.156Z,17.62
2022-08-28T06:51:39.914Z,17.75
2022-08-28T06:56:40.646Z,17.82
2022-08-28T07:01:41.513Z,17.84
2022-08-28T07:06:42.244Z,17.82
2022-08-28T07:11:42.871Z,18.00
2022-08-28T07:16:43.679Z,17.95
2022-08-28T07:21:44.308Z,18.02
2022-08-28T07:26:45.013Z,18.29
2022-08-28T07:31:45.709Z,18.51
2022-08-28T07:36:46.348Z,18.65
2022-08-28T07:41:47.052Z,18.65
2022-08-28T07:46:47.715Z,18.58
2022-08-28T07:51:48.335Z,18.70
2022-08-28T07:56:49.019Z,18.70
2022-08-28T08:01:49.879Z,18.84
2022-08-28T08:06:54.391Z,18.81
2022-08-28T08:11:52.155Z,18.72
2022-08-28T08:16:51.953Z,18.69
2022-08-28T08:21:53.426Z,18.63
2022-08-28T08:26:59.878Z,18.42
2022-08-28T08:31:55.109Z,18.30
2022-08-28T08:36:54.884Z,18.30
2022-08-28T08:41:55.681Z,18.37
2022-08-28T08:46:56.330Z,18.52
2022-08-28T08:51:57.107Z,18.37
2022-08-28T08:56:57.727Z,18.37
2022-08-28T09:01:58.484Z,18.48
2022-08-28T09:06:59.132Z,18.48
2022-08-28T09:11:59.776Z,18.45
2022-08-28T09:17:00.432Z,18.36
2022-08-28T09:22:01.126Z,18.36
2022-08-28T09:27:01.900Z,18.33
2022-08-28T09:32:02.501Z,18.23
2022-08-28T09:37:03.236Z,18.17
2022-08-28T09:42:03.898Z,18.08
2022-08-28T09:47:11.520Z,18.23
2022-08-28T09:52:05.137Z,18.30
2022-08-28T09:57:05.875Z,18.26
2022-08-28T10:02:06.622Z,18.10
2022-08-28T10:07:07.281Z,18.39
2022-08-28T10:12:08.151Z,18.57
2022-08-28T10:17:08.758Z,18.52
2022-08-28T10:22:09.558Z,18.39
2022-08-28T10:27:10.383Z,18.37
2022-08-28T10:32:11.118Z,18.54
2022-08-28T10:37:11.707Z,18.62
2022-08-28T10:42:12.403Z,18.57
2022-08-28T10:47:13.079Z,18.57
2022-08-28T10:52:13.746Z,18.35
2022-08-28T10:57:14.403Z,18.02
2022-08-28T11:02:15.144Z,18.07
2022-08-28T11:07:15.857Z,18.12
2022-08-28T11:12:16.536Z,18.20
2022-08-28T11:17:17.282Z,18.00
2022-08-28T11:22:18.020Z,18.17
2022-08-28T11:27:18.708Z,18.18
2022-08-28T11:32:19.578Z,18.26
2022-08-28T11:37:20.254Z,18.25
2022-08-28T11:42:20.978Z,18.18
2022-08-28T11:47:21.716Z,18.29
2022-08-28T11:52:22.349Z,18.20
2022-08-28T11:57:23.043Z,18.21
2022-08-28T12:02:23.769Z,18.03
2022-08-28T12:07:24.445Z,18.07
2022-08-28T12:12:25.225Z,18.02
2022-08-28T12:17:30.591Z,18.21
2022-08-28T12:22:27.705Z,18.25
2022-08-28T12:27:27.587Z,18.30
2022-08-28T12:32:28.368Z,18.29
2022-08-28T12:37:28.968Z,18.48
2022-08-28T12:42:29.681Z,18.73
2022-08-28T12:47:30.371Z,18.75
2022-08-28T12:52:31.186Z,18.69
2022-08-28T12:57:31.814Z,18.78
2022-08-28T13:02:32.645Z,18.85
2022-08-28T13:07:33.511Z,18.63
2022-08-28T13:12:55.185Z,18.66
2022-08-28T13:17:35.784Z,18.81
2022-08-28T13:22:35.495Z,18.88
2022-08-28T13:27:36.171Z,18.80
2022-08-28T13:32:36.930Z,18.95
2022-08-28T13:37:37.623Z,19.32
2022-08-28T13:42:38.303Z,19.46
2022-08-28T13:47:39.087Z,19.77
2022-08-28T13:52:39.807Z,19.94
2022-08-28T13:57:40.362Z,20.03
2022-08-28T14:02:41.372Z,19.92
2022-08-28T14:07:41.666Z,20.08
2022-08-28T14:12:42.142Z,20.47
2022-08-28T14:17:42.823Z,20.55
2022-08-28T14:22:43.534Z,20.59
2022-08-28T14:27:44.280Z,20.59
2022-08-28T14:32:44.894Z,20.36
2022-08-28T14:37:45.584Z,20.41
2022-08-28T14:42:46.370Z,20.50
2022-08-28T14:47:47.079Z,20.74
2022-08-28T14:52:50.527Z,20.79
2022-08-28T14:57:48.905Z,20.70
2022-08-28T15:02:48.918Z,20.88
2022-08-28T15:07:49.466Z,21.10
2022-08-28T15:12:50.214Z,21.28
2022-08-28T15:17:50.982Z,21.56
2022-08-28T15:22:51.887Z,21.65
2022-08-28T15:27:52.722Z,21.69
2022-08-28T15:32:53.571Z,21.74
2022-08-28T15:37:54.446Z,21.86
2022-08-28T15:42:55.355Z,21.96
2022-08-28T15:47:56.146Z,22.15
2022-08-28T15:52:56.824Z,22.27
2022-08-28T15:58:04.571Z,22.09
2022-08-28T16:02:58.471Z,22.00
2022-08-28T16:07:59.196Z,21.90
2022-08-28T16:12:59.970Z,21.92
2022-08-28T16:18:01.088Z,21.92
2022-08-28T16:23:01.304Z,21.90
2022-08-28T16:28:04.153Z,21.99
2022-08-28T16:33:02.831Z,22.00
2022-08-28T16:38:03.499Z,22.05
2022-08-28T16:43:04.205Z,21.86
2022-08-28T16:48:04.862Z,21.84
2022-08-28T16:53:07.172Z,21.88
2022-08-28T16:58:07.235Z,21.84
2022-08-28T17:03:06.973Z,21.74
2022-08-28T17:08:07.404Z,21.68
2022-08-28T17:13:07.936Z,21.61
2022-08-28T17:18:09.015Z,21.49
2022-08-28T17:23:09.176Z,21.46
2022-08-28T17:28:09.850Z,21.32
2022-08-28T17:33:10.664Z,21.31
2022-08-28T17:38:11.422Z,21.25
2022-08-28T17:43:12.189Z,21.12
2022-08-28T17:48:13.182Z,21.06
2022-08-28T17:53:13.419Z,20.94
2022-08-28T17:58:14.357Z,20.82
2022-08-28T18:03:14.638Z,20.70
2022-08-28T18:08:15.399Z,20.64
2022-08-28T18:13:16.079Z,20.54
2022-08-28T18:18:16.771Z,20.38
2022-08-28T18:23:17.517Z,20.28
2022-08-28T18:28:22.100Z,20.16
2022-08-28T18:33:19.053Z,20.03
2022-08-28T18:38:19.841Z,20.01
2022-08-28T18:43:20.540Z,19.95
2022-08-28T18:48:21.313Z,19.86
2022-08-28T18:53:22.096Z,19.86
2022-08-28T18:58:22.833Z,19.78
2022-08-28T19:03:23.568Z,19.71
2022-08-28T19:08:24.328Z,19.63
2022-08-28T19:13:25.078Z,19.56
2022-08-28T19:18:25.879Z,19.40
2022-08-28T19:23:26.613Z,19.36
2022-08-28T19:28:27.303Z,19.26
2022-08-28T19:33:28.007Z,19.14
2022-08-28T19:38:29.428Z,19.06
2022-08-28T19:43:42.769Z,18.99
2022-08-28T19:48:31.167Z,18.87
2022-08-28T19:53:30.859Z,18.80
2022-08-28T19:58:31.603Z,18.72
2022-08-28T20:03:32.442Z,18.55
2022-08-28T20:08:33.131Z,18.55
2022-08-28T20:13:33.909Z,18.55
2022-08-28T20:18:34.641Z,18.41
2022-08-28T20:23:35.431Z,18.32
2022-08-28T20:28:36.191Z,18.30
2022-08-28T20:33:36.909Z,18.27
2022-08-28T20:38:37.824Z,18.15
2022-08-28T20:43:38.520Z,18.02
2022-08-28T20:48:39.243Z,17.96
2022-08-28T20:53:40.030Z,17.95
2022-08-28T20:58:40.733Z,18.03
2022-08-28T21:03:41.478Z,18.18
2022-08-28T21:08:42.223Z,18.14
2022-08-28T21:13:42.945Z,17.92
2022-08-28T21:19:05.082Z,17.75
2022-08-28T21:23:45.278Z,17.62
2022-08-28T21:28:45.049Z,17.51
2022-08-28T21:33:45.772Z,17.46
2022-08-28T21:38:46.490Z,17.43
2022-08-28T21:43:47.155Z,17.38
2022-08-28T21:48:47.856Z,17.34
2022-08-28T21:53:48.559Z,17.28
2022-08-28T21:58:49.314Z,17.23
2022-08-28T22:03:50.041Z,17.16
2022-08-28T22:08:50.775Z,17.12
2022-08-28T22:13:51.510Z,17.08
2022-08-28T22:18:52.220Z,17.03
2022-08-28T22:23:52.918Z,16.96
2022-08-28T22:28:53.623Z,16.89
2022-08-28T22:33:54.343Z,16.85
2022-08-28T22:38:55.047Z,16.81
2022-08-28T22:43:55.791Z,16.75
2022-08-28T22:48:56.528Z,16.66
2022-08-28T22:53:57.210Z,16.60
2022-08-28T22:58:57.931Z,16.56
2022-08-28T23:03:58.676Z,16.53
2022-08-28T23:08:59.363Z,16.49
2022-08-28T23:14:00.130Z,16.46
2022-08-28T23:19:09.545Z,16.43
2022-08-28T23:24:02.387Z,16.42
2022-08-28T23:29:02.133Z,16.38
2022-08-28T23:34:02.849Z,16.33
2022-08-28T23:39:03.685Z,16.27
2022-08-28T23:44:08.489Z,16.21
2022-08-28T23:49:05.202Z,16.20
2022-08-28T23:54:06.095Z,16.12
2022-08-28T23:59:06.854Z,16.08
